»·PEaware :: N800DW TTPP-TBPB

N800DW :: TTPP-TBPB

FLIGHT INFORMATION

Flight Status: Arrived
Operator: Privately registered:
United States
More flights under this callsign
Pilot: Scott L. (17677)
Aircraft: Unknown
(EPIC)
More flights by this aircraft type
Origin: TTPP Piarco Intl
Trinidad and Tobago
Destination: TBPB Grantley Adams Intl
Barbados
More flights between these airports :: More routes between these airports
Route: POS UR515 TAB
File this flight plan on PilotEdge
Remarks:
Altitude:
(Current/Filed)
12,000ft
Speed:
(Current/Filed)
280kts
Departed: 15-Apr-18 05:23 AM
Arrived: 15-Apr-18 06:06 AM
Distance/Time
Traveled:
183nm/0:42
Distance/Time
To Go:
Arrived

Flight Plot

Page will automatically refresh every two minutes.

Flight plan parsing failed; only flown route is shown


Map Options




Map Legend


Flown Route
Filed Route
Departure Airport
Arrival Airport
Navaid (VOR, NDB)
Fix

Horizontal Profiles

Position Reports

Time Latitude Longitude Heading Altitude Ground
Speed
15-Apr-18 05:20 10.597028 -61.348746 246 52ft 14kts
15-Apr-18 05:21 10.596098 -61.351008 214 52ft 8kts
15-Apr-18 05:22 10.595391 -61.340918 90 75ft 147kts
15-Apr-18 05:23 10.599955 -61.279909 103 1162ft 260kts
15-Apr-18 05:24 10.539025 -61.271246 225 2856ft 283kts
15-Apr-18 05:25 10.498497 -61.337200 236 4834ft 275kts
15-Apr-18 05:26 10.506455 -61.403726 335 6768ft 290kts
15-Apr-18 05:27 10.561544 -61.364356 71 9192ft 257kts
15-Apr-18 05:28 10.591619 -61.301293 51 12754ft 260kts
15-Apr-18 05:29 10.644209 -61.248589 39 15494ft 275kts
15-Apr-18 05:30 10.704374 -61.197818 38 17809ft 289kts
15-Apr-18 05:31 10.774033 -61.140452 38 17986ft 348kts
15-Apr-18 05:32 10.851750 -61.076626 38 17984ft 367kts
15-Apr-18 05:33 10.931849 -61.010830 38 17985ft 372kts
15-Apr-18 05:34 11.012174 -60.944817 38 17985ft 373kts
15-Apr-18 05:35 11.092946 -60.878395 38 17986ft 374kts
15-Apr-18 05:36 11.175343 -60.815761 32 17980ft 373kts
15-Apr-18 05:37 11.262296 -60.758688 31 17980ft 373kts
15-Apr-18 05:38 11.349473 -60.701811 31 17981ft 373kts
15-Apr-18 05:39 11.436691 -60.644863 31 17983ft 373kts
15-Apr-18 05:40 11.523867 -60.587917 31 17984ft 373kts
15-Apr-18 05:41 11.610000 -60.531602 31 17984ft 365kts
15-Apr-18 05:42 11.694914 -60.476041 31 17986ft 362kts
15-Apr-18 05:43 11.779700 -60.420516 31 17987ft 362kts
15-Apr-18 05:44 11.864212 -60.365147 31 17988ft 362kts
15-Apr-18 05:45 11.948631 -60.309798 31 17982ft 361kts
15-Apr-18 05:46 12.033091 -60.254360 31 17983ft 361kts
15-Apr-18 05:47 12.116445 -60.199632 31 17978ft 361kts
15-Apr-18 05:48 12.200900 -60.144112 31 17977ft 360kts
15-Apr-18 05:49 12.284913 -60.088846 31 17978ft 360kts
15-Apr-18 05:50 12.369179 -60.033383 31 17980ft 360kts
15-Apr-18 05:51 12.453484 -59.977846 31 17981ft 361kts
15-Apr-18 05:52 12.537780 -59.922210 31 14684ft 368kts
15-Apr-18 05:53 12.619872 -59.868035 31 10581ft 342kts
15-Apr-18 05:54 12.696106 -59.816577 35 6791ft 316kts
15-Apr-18 05:55 12.764263 -59.771788 35 4169ft 268kts
15-Apr-18 05:56 12.821476 -59.734260 35 2519ft 214kts
15-Apr-18 05:57 12.864463 -59.706082 35 2506ft 171kts
15-Apr-18 05:58 12.908059 -59.677460 35 2511ft 205kts
15-Apr-18 05:59 12.964978 -59.672834 348 2510ft 230kts
15-Apr-18 06:00 13.021678 -59.667597 48 2324ft 211kts
15-Apr-18 06:01 13.044306 -59.614651 76 2006ft 194kts
15-Apr-18 06:02 13.054994 -59.572094 78 1835ft 135kts
15-Apr-18 06:03 13.063585 -59.538363 77 904ft 107kts
15-Apr-18 06:04 13.070649 -59.508612 80 240ft 100kts
15-Apr-18 06:05 13.073985 -59.495003 76 174ft 27kts
15-Apr-18 06:06 13.076705 -59.489899 333 178ft 25kts
15-Apr-18 06:07 13.074743 -59.499435 252 182ft 40kts
15-Apr-18 06:08 13.072000 -59.508554 175 189ft 14kts
15-Apr-18 06:09 13.071913 -59.508545 171 189ft 0kts
15-Apr-18 06:10 13.071913 -59.508545 171 189ft 0kts
15-Apr-18 06:11 13.071913 -59.508545 171 189ft 0kts

Navigation Log

Ident Type
Flight plan parsing failed, navigation log unavailable